createdAt,value
2019-01-04T00:00:42.597Z,102616.73
2019-01-04T00:03:10.425Z,102622.61
2019-01-04T00:05:38.414Z,102625.91
2019-01-04T00:08:05.876Z,102632.77
2019-01-04T00:10:33.276Z,102631.50
2019-01-04T00:13:00.999Z,102634.44
2019-01-04T00:15:29.029Z,102631.27
2019-01-04T00:17:56.430Z,102626.96
2019-01-04T00:20:23.997Z,102618.57
2019-01-04T00:22:51.792Z,102620.14
2019-01-04T00:25:19.487Z,102619.17
2019-01-04T00:27:47.833Z,102610.13
2019-01-04T00:30:16.101Z,102610.88
2019-01-04T00:32:44.240Z,102609.40
2019-01-04T00:35:12.042Z,102610.73
2019-01-04T00:37:40.072Z,102608.77
2019-01-04T00:40:08.019Z,102608.91
2019-01-04T00:42:36.092Z,102603.02
2019-01-04T00:45:04.380Z,102608.66
2019-01-04T00:47:32.232Z,102605.97
2019-01-04T00:49:59.898Z,102593.47
2019-01-04T00:52:27.772Z,102604.73
2019-01-04T00:55:01.497Z,102607.44
2019-01-04T00:58:40.022Z,102598.62
2019-01-04T01:02:22.280Z,102588.96
2019-01-04T01:05:46.959Z,102604.00
2019-01-04T01:08:57.186Z,102595.56
2019-01-04T01:12:20.012Z,102606.82
2019-01-04T01:15:41.126Z,102604.98
2019-01-04T01:19:14.165Z,102607.44
2019-01-04T01:22:17.249Z,102602.66
2019-01-04T01:25:47.978Z,102596.77
2019-01-04T01:29:09.144Z,102605.95
2019-01-04T01:31:53.859Z,102613.28
2019-01-04T01:35:04.391Z,102607.06
2019-01-04T01:38:19.033Z,102620.97
2019-01-04T01:41:38.434Z,102618.15
2019-01-04T01:45:02.351Z,102625.71
2019-01-04T01:47:40.328Z,102628.52
2019-01-04T01:51:09.164Z,102629.89
2019-01-04T01:53:44.173Z,102629.48
2019-01-04T01:56:11.860Z,102635.72
2019-01-04T01:58:39.247Z,102634.64
2019-01-04T02:01:06.877Z,102644.18
2019-01-04T02:03:34.500Z,102641.77
2019-01-04T02:06:01.760Z,102640.80
2019-01-04T02:08:29.252Z,102642.72
2019-01-04T02:10:56.365Z,102642.22
2019-01-04T02:13:24.077Z,102641.38
2019-01-04T02:15:51.331Z,102639.27
2019-01-04T02:18:18.824Z,102626.08
2019-01-04T02:20:46.703Z,102629.16
2019-01-04T02:23:14.236Z,102627.20
2019-01-04T02:25:41.661Z,102611.40
2019-01-04T02:28:09.129Z,102621.67
2019-01-04T02:30:36.692Z,102613.85
2019-01-04T02:33:04.089Z,102606.89
2019-01-04T02:35:31.367Z,102598.33
2019-01-04T02:37:58.846Z,102592.44
2019-01-04T02:40:26.459Z,102593.78
2019-01-04T02:42:53.981Z,102602.75
2019-01-04T02:45:21.701Z,102604.20
2019-01-04T02:47:49.640Z,102604.19
2019-01-04T02:50:17.319Z,102610.44
2019-01-04T02:52:44.836Z,102607.73
2019-01-04T02:55:12.781Z,102611.48
2019-01-04T02:57:40.553Z,102614.64
2019-01-04T03:00:08.230Z,102616.87
2019-01-04T03:02:35.766Z,102614.37
2019-01-04T03:05:03.606Z,102628.85
2019-01-04T03:07:31.266Z,102639.36
2019-01-04T03:09:58.506Z,102635.85
2019-01-04T03:12:26.599Z,102633.59
2019-01-04T03:14:53.748Z,102631.54
2019-01-04T03:17:21.358Z,102620.14
2019-01-04T03:19:49.513Z,102618.95
2019-01-04T03:22:16.624Z,102615.80
2019-01-04T03:24:44.403Z,102612.20
2019-01-04T03:27:12.374Z,102612.93
2019-01-04T03:29:39.747Z,102601.38
2019-01-04T03:32:07.258Z,102599.63
2019-01-04T03:34:35.122Z,102594.84
2019-01-04T03:37:02.639Z,102586.88
2019-01-04T03:39:30.123Z,102598.02
2019-01-04T03:41:58.137Z,102586.30
2019-01-04T03:44:26.104Z,102591.06
2019-01-04T03:46:53.246Z,102592.65
2019-01-04T03:49:20.592Z,102587.76
2019-01-04T03:51:48.052Z,102578.72
2019-01-04T03:54:15.731Z,102581.97
2019-01-04T03:56:43.501Z,102579.26
2019-01-04T03:59:11.477Z,102583.14
2019-01-04T04:01:39.309Z,102568.59
2019-01-04T04:04:06.822Z,102567.91
2019-01-04T04:06:34.163Z,102571.06
2019-01-04T04:09:01.632Z,102566.42
2019-01-04T04:11:30.143Z,102559.83
2019-01-04T04:13:57.602Z,102567.01
2019-01-04T04:16:25.323Z,102568.78
2019-01-04T04:18:53.639Z,102569.70
2019-01-04T04:21:20.865Z,102568.50
2019-01-04T04:23:48.753Z,102571.50
2019-01-04T04:26:16.465Z,102575.20
2019-01-04T04:28:43.657Z,102573.83
2019-01-04T04:31:11.526Z,102577.27
2019-01-04T04:33:39.486Z,102572.02
2019-01-04T04:36:06.625Z,102577.38
2019-01-04T04:38:34.226Z,102573.75
2019-01-04T04:41:02.230Z,102582.80
2019-01-04T04:43:29.740Z,102583.53
2019-01-04T04:45:57.040Z,102584.21
2019-01-04T04:48:24.832Z,102586.41
2019-01-04T04:50:52.648Z,102582.99
2019-01-04T04:53:20.458Z,102577.95
2019-01-04T04:55:48.006Z,102575.87
2019-01-04T04:58:15.769Z,102563.59
2019-01-04T05:00:44.120Z,102561.52
2019-01-04T05:03:12.086Z,102562.98
2019-01-04T05:05:39.207Z,102564.81
2019-01-04T05:08:06.474Z,102562.77
2019-01-04T05:10:34.345Z,102564.30
2019-01-04T05:13:02.008Z,102568.42
2019-01-04T05:15:29.443Z,102571.96
2019-01-04T05:17:57.498Z,102576.52
2019-01-04T05:20:24.730Z,102572.84
2019-01-04T05:22:52.147Z,102569.23
2019-01-04T05:25:19.808Z,102572.90
2019-01-04T05:27:46.964Z,102571.16
2019-01-04T05:30:14.152Z,102559.03
2019-01-04T05:32:41.994Z,102544.79
2019-01-04T05:35:09.691Z,102549.55
2019-01-04T05:37:36.843Z,102550.97
2019-01-04T05:40:05.405Z,102546.81
2019-01-04T05:42:32.864Z,102551.31
2019-01-04T05:45:00.236Z,102542.02
2019-01-04T05:47:27.786Z,102532.13
2019-01-04T05:49:55.030Z,102543.71
2019-01-04T05:52:23.026Z,102536.02
2019-01-04T05:54:51.058Z,102537.17
2019-01-04T05:57:18.543Z,102552.90
2019-01-04T05:59:46.439Z,102545.87
2019-01-04T06:02:14.022Z,102554.77
2019-01-04T06:04:41.544Z,102560.72
2019-01-04T06:07:09.239Z,102558.44
2019-01-04T06:09:37.110Z,102561.37
2019-01-04T06:12:05.159Z,102562.95
2019-01-04T06:14:32.694Z,102562.58
2019-01-04T06:16:59.900Z,102565.59
2019-01-04T06:19:27.840Z,102567.30
2019-01-04T06:21:55.861Z,102560.38
2019-01-04T06:24:23.571Z,102557.30
2019-01-04T06:26:51.356Z,102557.28
2019-01-04T06:29:18.822Z,102554.11
2019-01-04T06:31:46.728Z,102553.83
2019-01-04T06:34:14.852Z,102554.31
2019-01-04T06:36:41.981Z,102567.54
2019-01-04T06:39:09.533Z,102562.37
2019-01-04T06:41:37.356Z,102571.45
2019-01-04T06:44:05.213Z,102569.69
2019-01-04T06:46:32.594Z,102583.72
2019-01-04T06:49:00.101Z,102580.06
2019-01-04T06:51:27.983Z,102586.72
2019-01-04T06:53:56.627Z,102590.36
2019-01-04T06:56:23.999Z,102596.84
2019-01-04T06:58:51.560Z,102591.09
2019-01-04T07:01:19.182Z,102592.73
2019-01-04T07:03:47.068Z,102592.53
2019-01-04T07:06:14.570Z,102593.94
2019-01-04T07:08:42.110Z,102593.86
2019-01-04T07:11:09.494Z,102587.18
2019-01-04T07:13:36.996Z,102586.45
2019-01-04T07:16:04.239Z,102578.95
2019-01-04T07:18:31.520Z,102581.77
2019-01-04T07:20:59.372Z,102576.84
2019-01-04T07:23:26.612Z,102581.27
2019-01-04T07:25:54.107Z,102583.27
2019-01-04T07:28:21.442Z,102583.75
2019-01-04T07:30:48.900Z,102580.09
2019-01-04T07:33:16.434Z,102591.29
2019-01-04T07:35:44.466Z,102596.70
2019-01-04T07:38:12.083Z,102597.43
2019-01-04T07:40:39.180Z,102596.41
2019-01-04T07:43:06.846Z,102604.22
2019-01-04T07:45:34.181Z,102603.28
2019-01-04T07:48:02.036Z,102613.33
2019-01-04T07:50:29.621Z,102604.86
2019-01-04T07:52:57.365Z,102602.97
2019-01-04T07:55:25.037Z,102600.41
2019-01-04T07:57:52.605Z,102607.41
2019-01-04T08:00:20.113Z,102609.36
2019-01-04T08:02:57.299Z,102616.72
2019-01-04T08:05:28.676Z,102624.19
2019-01-04T08:07:56.618Z,102619.22
2019-01-04T08:10:24.178Z,102616.16
2019-01-04T08:12:51.804Z,102615.92
2019-01-04T08:15:19.181Z,102628.33
2019-01-04T08:17:46.787Z,102621.80
2019-01-04T08:20:14.023Z,102620.30
2019-01-04T08:22:42.016Z,102622.19
2019-01-04T08:25:09.813Z,102628.85
2019-01-04T08:27:37.640Z,102634.88
2019-01-04T08:30:09.828Z,102631.36
2019-01-04T08:32:40.506Z,102632.48
2019-01-04T08:35:07.801Z,102637.13
2019-01-04T08:37:35.448Z,102637.53
2019-01-04T08:40:04.278Z,102643.56
2019-01-04T08:42:31.492Z,102645.67
2019-01-04T08:44:58.981Z,102644.33
2019-01-04T08:47:26.357Z,102635.02
2019-01-04T08:49:54.362Z,102627.91
2019-01-04T08:52:21.480Z,102622.44
2019-01-04T08:54:49.029Z,102621.48
2019-01-04T08:57:16.416Z,102619.39
2019-01-04T08:59:44.306Z,102615.02
2019-01-04T09:02:11.731Z,102620.28
2019-01-04T09:04:39.386Z,102622.23
2019-01-04T09:07:06.832Z,102622.84
2019-01-04T09:09:34.568Z,102611.59
2019-01-04T09:12:02.335Z,102604.97
2019-01-04T09:14:29.727Z,102595.22
2019-01-04T09:16:57.266Z,102589.92
2019-01-04T09:19:25.129Z,102586.13
2019-01-04T09:21:52.412Z,102587.02
2019-01-04T09:24:20.053Z,102582.48
2019-01-04T09:26:48.538Z,102579.69
2019-01-04T09:29:15.781Z,102589.84
2019-01-04T09:31:42.873Z,102588.24
2019-01-04T09:34:10.835Z,102582.50
2019-01-04T09:36:38.393Z,102586.37
2019-01-04T09:39:07.433Z,102579.77
2019-01-04T09:41:46.921Z,102585.72
2019-01-04T09:44:14.183Z,102581.63
2019-01-04T09:46:42.008Z,102573.84
2019-01-04T09:49:09.314Z,102573.21
2019-01-04T09:51:37.148Z,102576.24
2019-01-04T09:54:04.869Z,102574.26
2019-01-04T09:56:32.801Z,102581.66
2019-01-04T09:59:01.108Z,102572.84
2019-01-04T10:01:28.884Z,102573.44
2019-01-04T10:03:56.128Z,102571.70
2019-01-04T10:06:23.717Z,102568.48
2019-01-04T10:08:51.580Z,102556.66
2019-01-04T10:11:18.727Z,102552.21
2019-01-04T10:13:46.149Z,102545.44
2019-01-04T10:16:13.326Z,102541.11
2019-01-04T10:18:40.637Z,102530.08
2019-01-04T10:21:08.317Z,102515.00
2019-01-04T10:23:36.530Z,102511.36
2019-01-04T10:26:04.165Z,102503.23
2019-01-04T10:28:31.557Z,102499.69
2019-01-04T10:30:59.407Z,102501.38
2019-01-04T10:33:27.040Z,102490.93
2019-01-04T10:35:54.612Z,102496.99
2019-01-04T10:38:21.937Z,102497.52
2019-01-04T10:40:49.363Z,102489.78
2019-01-04T10:43:17.398Z,102485.44
2019-01-04T10:45:45.345Z,102480.95
2019-01-04T10:48:12.891Z,102472.41
2019-01-04T10:50:40.537Z,102466.05
2019-01-04T10:53:07.677Z,102458.86
2019-01-04T10:55:35.641Z,102451.94
2019-01-04T10:58:02.909Z,102439.34
2019-01-04T11:00:30.737Z,102434.40
2019-01-04T11:02:58.762Z,102429.83
2019-01-04T11:05:26.401Z,102434.28
2019-01-04T11:07:54.072Z,102430.97
2019-01-04T11:10:21.843Z,102430.38
2019-01-04T11:12:49.208Z,102422.19
2019-01-04T11:15:16.932Z,102413.27
2019-01-04T11:17:45.211Z,102410.34
2019-01-04T11:20:40.378Z,102399.70
2019-01-04T11:23:43.885Z,102390.75
2019-01-04T11:26:18.443Z,102391.06
2019-01-04T11:29:37.372Z,102390.58
2019-01-04T11:32:28.600Z,102383.48
2019-01-04T11:35:26.210Z,102384.61
2019-01-04T11:38:16.013Z,102381.34
2019-01-04T11:41:09.221Z,102385.05
2019-01-04T11:44:43.967Z,102379.20
2019-01-04T11:48:03.770Z,102389.01
2019-01-04T11:51:13.780Z,102379.11
2019-01-04T11:53:42.430Z,102370.98
2019-01-04T11:56:10.276Z,102370.20
2019-01-04T11:58:37.658Z,102358.16
2019-01-04T12:01:05.615Z,102357.64
2019-01-04T12:03:33.122Z,102349.94
2019-01-04T12:06:03.563Z,102354.19
2019-01-04T12:08:31.138Z,102350.41
2019-01-04T12:10:58.694Z,102344.73
2019-01-04T12:13:26.576Z,102348.98
2019-01-04T12:15:54.331Z,102357.10
2019-01-04T12:18:22.193Z,102362.91
2019-01-04T12:20:49.698Z,102360.78
2019-01-04T12:23:17.408Z,102358.20
2019-01-04T12:25:44.541Z,102346.97
2019-01-04T12:28:12.571Z,102342.22
2019-01-04T12:30:40.601Z,102338.30
2019-01-04T12:33:09.126Z,102337.84
2019-01-04T12:35:36.530Z,102342.41
2019-01-04T12:38:04.152Z,102341.84
2019-01-04T12:40:31.836Z,102340.48
2019-01-04T12:42:59.679Z,102339.45
2019-01-04T12:45:27.569Z,102334.03
2019-01-04T12:47:54.753Z,102335.91
2019-01-04T12:50:22.094Z,102337.77
2019-01-04T12:52:49.617Z,102344.02
2019-01-04T12:55:16.885Z,102347.53
2019-01-04T12:57:44.389Z,102334.97
2019-01-04T13:00:12.862Z,102325.88
2019-01-04T13:02:40.917Z,102327.23
2019-01-04T13:05:08.241Z,102319.45
2019-01-04T13:07:35.391Z,102321.25
2019-01-04T13:10:03.429Z,102319.89
2019-01-04T13:12:30.924Z,102320.88
2019-01-04T13:14:58.931Z,102322.02
2019-01-04T13:17:26.194Z,102310.02
2019-01-04T13:19:53.496Z,102292.84
2019-01-04T13:22:21.621Z,102295.77
2019-01-04T13:24:49.333Z,102294.41
2019-01-04T13:27:16.801Z,102288.56
2019-01-04T13:29:44.607Z,102279.95
2019-01-04T13:32:12.788Z,102281.78
2019-01-04T13:34:40.156Z,102272.95
2019-01-04T13:37:07.704Z,102274.69
2019-01-04T13:39:34.969Z,102263.29
2019-01-04T13:42:02.509Z,102263.80
2019-01-04T13:44:30.035Z,102248.53
2019-01-04T13:46:57.144Z,102245.61
2019-01-04T13:49:24.414Z,102245.37
2019-01-04T13:51:52.642Z,102247.23
2019-01-04T13:54:20.078Z,102241.47
2019-01-04T13:56:47.768Z,102236.58
2019-01-04T13:59:15.349Z,102228.45
2019-01-04T14:01:43.477Z,102222.51
2019-01-04T14:04:10.574Z,102219.42
2019-01-04T14:06:38.482Z,102203.92
2019-01-04T14:09:07.113Z,102204.46
2019-01-04T14:11:35.062Z,102191.23
2019-01-04T14:14:02.426Z,102180.44
2019-01-04T14:16:30.073Z,102175.39
2019-01-04T14:18:57.876Z,102173.56
2019-01-04T14:21:25.159Z,102165.59
2019-01-04T14:23:53.313Z,102166.92
2019-01-04T14:26:20.580Z,102164.98
2019-01-04T14:28:48.444Z,102177.39
2019-01-04T14:31:15.577Z,102191.33
2019-01-04T14:33:45.855Z,102200.14
2019-01-04T14:36:13.764Z,102187.02
2019-01-04T14:38:41.524Z,102178.03
2019-01-04T14:41:09.490Z,102178.70
2019-01-04T14:43:36.786Z,102174.47
2019-01-04T14:46:04.467Z,102167.31
2019-01-04T14:48:32.133Z,102154.30
2019-01-04T14:51:00.016Z,102147.22
2019-01-04T14:53:27.589Z,102159.97
2019-01-04T14:55:55.127Z,102159.42
2019-01-04T14:58:22.487Z,102159.55
2019-01-04T15:00:50.277Z,102154.68
2019-01-04T15:03:18.906Z,102170.44
2019-01-04T15:05:50.567Z,102172.98
2019-01-04T15:08:18.149Z,102185.70
2019-01-04T15:10:47.172Z,102168.61
2019-01-04T15:13:15.220Z,102161.63
2019-01-04T15:15:42.695Z,102169.63
2019-01-04T15:18:11.117Z,102154.71
2019-01-04T15:20:38.754Z,102155.39
2019-01-04T15:23:06.340Z,102163.16
2019-01-04T15:25:33.968Z,102146.67
2019-01-04T15:28:02.115Z,102144.98
2019-01-04T15:30:30.884Z,102143.08
2019-01-04T15:32:58.874Z,102154.05
2019-01-04T15:35:27.070Z,102160.02
2019-01-04T15:37:55.679Z,102170.53
2019-01-04T15:40:23.746Z,102164.86
2019-01-04T15:42:51.488Z,102171.30
2019-01-04T15:45:20.069Z,102170.62
2019-01-04T15:47:48.825Z,102176.03
2019-01-04T15:50:17.420Z,102184.45
2019-01-04T15:52:44.545Z,102181.41
2019-01-04T15:55:13.385Z,102200.50
2019-01-04T15:57:40.882Z,102214.50
2019-01-04T16:00:11.536Z,102221.45
2019-01-04T16:02:44.446Z,102223.48
2019-01-04T16:05:12.917Z,102222.59
2019-01-04T16:07:41.410Z,102223.65
2019-01-04T16:10:10.049Z,102229.19
2019-01-04T16:12:39.188Z,102222.34
2019-01-04T16:15:08.654Z,102222.69
2019-01-04T16:17:37.837Z,102207.38
2019-01-04T16:20:08.329Z,102215.91
2019-01-04T16:22:36.452Z,102222.41
2019-01-04T16:25:05.040Z,102213.02
2019-01-04T16:27:32.192Z,102208.80
2019-01-04T16:29:59.378Z,102203.78
2019-01-04T16:32:26.613Z,102194.28
2019-01-04T16:34:54.594Z,102179.67
2019-01-04T16:37:21.959Z,102165.45
2019-01-04T16:39:49.771Z,102142.25
2019-01-04T16:42:17.353Z,102143.44
2019-01-04T16:44:44.862Z,102139.27
2019-01-04T16:47:11.973Z,102138.58
2019-01-04T16:52:16.231Z,102138.13
2019-01-04T16:54:45.679Z,102131.71
2019-01-04T16:57:21.019Z,102132.20
2019-01-04T17:07:21.528Z,102142.75
2019-01-04T17:18:31.112Z,102145.01
2019-01-04T17:22:38.754Z,102134.23
2019-01-04T17:25:08.409Z,102132.66
2019-01-04T17:31:23.842Z,102127.12
2019-01-04T17:33:52.727Z,102136.39
2019-01-04T17:36:20.726Z,102129.13
2019-01-04T17:38:48.772Z,102124.94
2019-01-04T17:41:17.784Z,102127.36
2019-01-04T17:43:46.188Z,102135.20
2019-01-04T17:46:14.779Z,102127.77
2019-01-04T17:48:42.722Z,102127.63
2019-01-04T17:51:11.603Z,102124.59
2019-01-04T17:53:54.607Z,102114.89
2019-01-04T17:56:23.383Z,102122.34
2019-01-04T17:58:51.822Z,102125.95
2019-01-04T18:01:20.190Z,102120.36
2019-01-04T18:03:48.531Z,102125.27
2019-01-04T18:06:17.137Z,102120.20
2019-01-04T18:08:45.752Z,102116.59
2019-01-04T18:11:15.093Z,102111.06
2019-01-04T18:14:26.882Z,102118.66
2019-01-04T18:17:15.046Z,102106.48
2019-01-04T18:27:59.824Z,102104.22
2019-01-04T18:30:40.703Z,102106.38
2019-01-04T18:33:07.934Z,102103.16
2019-01-04T18:35:35.509Z,102099.82
2019-01-04T18:38:03.169Z,102094.95
2019-01-04T18:40:32.291Z,102098.17
2019-01-04T18:43:00.524Z,102085.05
2019-01-04T18:45:28.257Z,102091.23
2019-01-04T18:47:56.013Z,102095.30
2019-01-04T18:50:23.294Z,102097.49
2019-01-04T18:52:50.723Z,102095.13
2019-01-04T18:55:19.024Z,102091.23
2019-01-04T18:57:46.738Z,102090.90
2019-01-04T19:00:13.866Z,102096.14
2019-01-04T19:02:41.456Z,102099.24
2019-01-04T19:05:09.074Z,102109.36
2019-01-04T19:07:36.484Z,102108.89
2019-01-04T19:10:05.925Z,102106.18
2019-01-04T19:12:33.336Z,102105.34
2019-01-04T19:15:00.756Z,102103.98
2019-01-04T19:17:28.690Z,102109.45
2019-01-04T19:19:56.230Z,102110.00
2019-01-04T19:22:23.797Z,102106.73
2019-01-04T19:24:51.638Z,102110.63
2019-01-04T19:27:18.870Z,102106.02
2019-01-04T19:29:46.423Z,102104.50
2019-01-04T19:32:13.692Z,102119.48
2019-01-04T19:34:41.508Z,102115.38
2019-01-04T19:37:11.986Z,102108.77
2019-01-04T19:39:39.301Z,102110.34
2019-01-04T19:42:06.943Z,102094.92
2019-01-04T19:44:34.352Z,102091.54
2019-01-04T19:47:02.613Z,102086.41
2019-01-04T19:49:30.285Z,102080.32
2019-01-04T19:51:57.410Z,102083.88
2019-01-04T19:54:25.278Z,102073.25
2019-01-04T19:56:52.988Z,102071.69
2019-01-04T19:59:24.402Z,102069.98
2019-01-04T20:01:52.005Z,102077.61
2019-01-04T20:04:19.323Z,102080.87
2019-01-04T20:08:10.228Z,102084.26
2019-01-04T20:11:59.688Z,102094.59
2019-01-04T20:15:24.794Z,102086.08
2019-01-04T20:18:18.346Z,102081.67
2019-01-04T20:21:17.857Z,102082.73
2019-01-04T20:24:22.967Z,102088.32
2019-01-04T20:27:22.078Z,102088.16
2019-01-04T20:30:21.621Z,102095.14
2019-01-04T20:33:06.974Z,102090.73
2019-01-04T20:35:52.967Z,102094.80
2019-01-04T20:38:42.511Z,102096.80
2019-01-04T20:41:31.773Z,102099.72
2019-01-04T20:44:19.963Z,102094.80
2019-01-04T20:47:17.898Z,102097.17
2019-01-04T20:49:59.407Z,102094.12
2019-01-04T20:52:52.487Z,102095.47
2019-01-04T20:55:42.725Z,102090.91
2019-01-04T20:58:41.606Z,102096.66
2019-01-04T21:01:24.333Z,102089.17
2019-01-04T21:04:11.073Z,102090.91
2019-01-04T21:06:57.175Z,102088.36
2019-01-04T21:09:56.458Z,102094.63
2019-01-04T21:12:49.264Z,102089.08
2019-01-04T21:15:36.071Z,102090.43
2019-01-04T21:18:38.592Z,102092.80
2019-01-04T21:21:24.428Z,102086.29
2019-01-04T21:24:10.471Z,102087.17
2019-01-04T21:26:56.212Z,102089.00
2019-01-04T21:29:46.738Z,102089.72
2019-01-04T21:32:32.291Z,102087.00
2019-01-04T21:35:18.247Z,102082.95
2019-01-04T21:38:04.916Z,102086.67
2019-01-04T21:40:52.229Z,102087.30
2019-01-04T21:43:42.188Z,102090.05
2019-01-04T21:46:28.314Z,102085.31
2019-01-04T21:49:27.456Z,102091.16
2019-01-04T21:52:13.141Z,102091.03
2019-01-04T21:54:56.907Z,102099.84
2019-01-04T21:57:43.057Z,102097.84
2019-01-04T22:00:29.565Z,102094.93
2019-01-04T22:03:15.517Z,102094.80
2019-01-04T22:06:18.063Z,102090.35
2019-01-04T22:09:19.551Z,102082.39
2019-01-04T22:12:16.613Z,102084.73
2019-01-04T22:15:01.957Z,102079.85
2019-01-04T22:17:47.995Z,102075.45
2019-01-04T22:20:44.205Z,102067.11
2019-01-04T22:23:37.346Z,102060.84
2019-01-04T22:26:23.059Z,102063.38
2019-01-04T22:29:08.960Z,102058.98
2019-01-04T22:31:54.850Z,102066.12
2019-01-04T22:34:44.668Z,102053.60
2019-01-04T22:37:30.742Z,102049.37
2019-01-04T22:40:16.651Z,102051.73
2019-01-04T22:43:02.045Z,102047.16
2019-01-04T22:45:48.193Z,102047.80
2019-01-04T22:48:28.557Z,102044.80
2019-01-04T22:51:14.488Z,102048.01
2019-01-04T22:54:01.297Z,102051.05
2019-01-04T22:56:47.410Z,102049.70
2019-01-04T22:59:33.696Z,102051.40
2019-01-04T23:02:19.371Z,102046.78
2019-01-04T23:05:04.350Z,102045.94
2019-01-04T23:07:57.175Z,102051.36
2019-01-04T23:10:44.010Z,102048.35
2019-01-04T23:13:24.589Z,102046.83
2019-01-04T23:16:14.721Z,102053.47
2019-01-04T23:19:00.954Z,102049.23
2019-01-04T23:22:52.217Z,102047.41
2019-01-04T23:25:43.548Z,102051.23
2019-01-04T23:28:29.314Z,102047.20
2019-01-04T23:31:08.833Z,102049.06
2019-01-04T23:33:58.875Z,102048.76
2019-01-04T23:36:49.257Z,102046.39
2019-01-04T23:39:42.754Z,102045.50
2019-01-04T23:42:32.576Z,102028.77
2019-01-04T23:45:25.537Z,102027.75
2019-01-04T23:48:19.171Z,102024.67
2019-01-04T23:51:01.927Z,102015.22
2019-01-04T23:53:50.279Z,102019.82
2019-01-04T23:56:41.196Z,102026.77
2019-01-04T23:59:26.873Z,102030.47
